sensor_id;sensor_type;location;lat;lon;timestamp;P1;durP1;ratioP1;P2;durP2;ratioP2
48052;SDS011;33824;51.600;5.718;2023-07-02T00:01:33;8.13;;;2.65;;
48052;SDS011;33824;51.600;5.718;2023-07-02T00:03:59;10.02;;;3.47;;
48052;SDS011;33824;51.600;5.718;2023-07-02T00:06:24;8.45;;;3.40;;
48052;SDS011;33824;51.600;5.718;2023-07-02T00:08:50;11.65;;;3.10;;
48052;SDS011;33824;51.600;5.718;2023-07-02T00:11:16;8.65;;;3.28;;
48052;SDS011;33824;51.600;5.718;2023-07-02T00:13:41;6.85;;;3.13;;
48052;SDS011;33824;51.600;5.718;2023-07-02T00:16:07;7.72;;;2.90;;
48052;SDS011;33824;51.600;5.718;2023-07-02T00:18:32;7.78;;;2.60;;
48052;SDS011;33824;51.600;5.718;2023-07-02T00:21:01;8.07;;;2.90;;
48052;SDS011;33824;51.600;5.718;2023-07-02T00:23:29;4.57;;;2.35;;
48052;SDS011;33824;51.600;5.718;2023-07-02T00:25:58;6.43;;;2.50;;
48052;SDS011;33824;51.600;5.718;2023-07-02T00:28:24;5.80;;;2.28;;
48052;SDS011;33824;51.600;5.718;2023-07-02T00:30:49;8.93;;;2.75;;
48052;SDS011;33824;51.600;5.718;2023-07-02T00:33:15;10.65;;;3.08;;
48052;SDS011;33824;51.600;5.718;2023-07-02T00:35:41;8.65;;;3.10;;
48052;SDS011;33824;51.600;5.718;2023-07-02T00:38:06;12.77;;;3.42;;
48052;SDS011;33824;51.600;5.718;2023-07-02T00:40:32;13.00;;;3.17;;
48052;SDS011;33824;51.600;5.718;2023-07-02T00:42:57;14.00;;;3.80;;
48052;SDS011;33824;51.600;5.718;2023-07-02T00:45:23;11.70;;;3.45;;
48052;SDS011;33824;51.600;5.718;2023-07-02T00:47:51;9.02;;;3.65;;
48052;SDS011;33824;51.600;5.718;2023-07-02T00:50:21;13.95;;;3.67;;
48052;SDS011;33824;51.600;5.718;2023-07-02T00:52:47;11.63;;;4.03;;
48052;SDS011;33824;51.600;5.718;2023-07-02T00:55:13;9.18;;;4.03;;
48052;SDS011;33824;51.600;5.718;2023-07-02T00:57:39;14.93;;;4.50;;
48052;SDS011;33824;51.600;5.718;2023-07-02T01:00:06;11.40;;;3.53;;
48052;SDS011;33824;51.600;5.718;2023-07-02T01:02:32;14.52;;;4.63;;
48052;SDS011;33824;51.600;5.718;2023-07-02T01:04:58;15.20;;;4.03;;
48052;SDS011;33824;51.600;5.718;2023-07-02T01:07:24;10.32;;;4.43;;
48052;SDS011;33824;51.600;5.718;2023-07-02T01:09:51;11.52;;;4.43;;
48052;SDS011;33824;51.600;5.718;2023-07-02T01:12:17;15.98;;;4.70;;
48052;SDS011;33824;51.600;5.718;2023-07-02T01:14:44;21.40;;;5.63;;
48052;SDS011;33824;51.600;5.718;2023-07-02T01:17:13;11.75;;;4.63;;
48052;SDS011;33824;51.600;5.718;2023-07-02T01:22:09;16.92;;;5.35;;
48052;SDS011;33824;51.600;5.718;2023-07-02T01:24:36;11.65;;;4.32;;
48052;SDS011;33824;51.600;5.718;2023-07-02T01:27:03;16.75;;;5.78;;
48052;SDS011;33824;51.600;5.718;2023-07-02T01:29:29;13.80;;;5.05;;
48052;SDS011;33824;51.600;5.718;2023-07-02T01:31:56;14.60;;;5.28;;
48052;SDS011;33824;51.600;5.718;2023-07-02T01:34:22;23.88;;;5.10;;
48052;SDS011;33824;51.600;5.718;2023-07-02T01:36:48;14.73;;;5.28;;
48052;SDS011;33824;51.600;5.718;2023-07-02T01:39:14;14.55;;;5.43;;
48052;SDS011;33824;51.600;5.718;2023-07-02T01:41:45;12.00;;;4.93;;
48052;SDS011;33824;51.600;5.718;2023-07-02T01:44:14;13.05;;;4.85;;
48052;SDS011;33824;51.600;5.718;2023-07-02T01:46:40;13.95;;;4.97;;
48052;SDS011;33824;51.600;5.718;2023-07-02T01:49:05;18.35;;;6.47;;
48052;SDS011;33824;51.600;5.718;2023-07-02T01:51:31;15.23;;;5.43;;
48052;SDS011;33824;51.600;5.718;2023-07-02T01:53:57;11.27;;;4.95;;
48052;SDS011;33824;51.600;5.718;2023-07-02T01:56:23;17.45;;;6.28;;
48052;SDS011;33824;51.600;5.718;2023-07-02T01:58:48;13.02;;;5.57;;
48052;SDS011;33824;51.600;5.718;2023-07-02T02:01:14;14.93;;;5.90;;
48052;SDS011;33824;51.600;5.718;2023-07-02T02:03:39;16.10;;;6.07;;
48052;SDS011;33824;51.600;5.718;2023-07-02T02:06:05;21.08;;;7.00;;
48052;SDS011;33824;51.600;5.718;2023-07-02T02:08:30;18.50;;;6.35;;
48052;SDS011;33824;51.600;5.718;2023-07-02T02:10:56;15.57;;;5.38;;
48052;SDS011;33824;51.600;5.718;2023-07-02T02:13:22;15.98;;;5.60;;
48052;SDS011;33824;51.600;5.718;2023-07-02T02:15:47;12.68;;;5.53;;
48052;SDS011;33824;51.600;5.718;2023-07-02T02:18:13;15.82;;;6.10;;
48052;SDS011;33824;51.600;5.718;2023-07-02T02:20:38;14.82;;;6.40;;
48052;SDS011;33824;51.600;5.718;2023-07-02T02:23:05;17.98;;;7.00;;
48052;SDS011;33824;51.600;5.718;2023-07-02T02:25:30;16.60;;;6.07;;
48052;SDS011;33824;51.600;5.718;2023-07-02T02:27:56;14.15;;;5.45;;
48052;SDS011;33824;51.600;5.718;2023-07-02T02:30:21;18.25;;;7.18;;
48052;SDS011;33824;51.600;5.718;2023-07-02T02:32:47;19.85;;;6.63;;
48052;SDS011;33824;51.600;5.718;2023-07-02T02:35:13;22.00;;;6.95;;
48052;SDS011;33824;51.600;5.718;2023-07-02T02:37:39;16.00;;;6.32;;
48052;SDS011;33824;51.600;5.718;2023-07-02T02:40:06;17.05;;;6.65;;
48052;SDS011;33824;51.600;5.718;2023-07-02T02:42:34;19.17;;;5.90;;
48052;SDS011;33824;51.600;5.718;2023-07-02T02:45:01;15.10;;;6.53;;
48052;SDS011;33824;51.600;5.718;2023-07-02T02:47:26;13.38;;;5.72;;
48052;SDS011;33824;51.600;5.718;2023-07-02T02:49:52;14.57;;;6.03;;
48052;SDS011;33824;51.600;5.718;2023-07-02T02:52:18;17.77;;;6.25;;
48052;SDS011;33824;51.600;5.718;2023-07-02T02:54:43;13.43;;;6.00;;
48052;SDS011;33824;51.600;5.718;2023-07-02T02:57:09;17.60;;;6.90;;
48052;SDS011;33824;51.600;5.718;2023-07-02T02:59:34;17.35;;;6.55;;
48052;SDS011;33824;51.600;5.718;2023-07-02T03:02:00;16.85;;;6.60;;
48052;SDS011;33824;51.600;5.718;2023-07-02T03:04:25;19.30;;;7.55;;
48052;SDS011;33824;51.600;5.718;2023-07-02T03:06:51;19.73;;;6.78;;
48052;SDS011;33824;51.600;5.718;2023-07-02T03:09:21;14.82;;;6.65;;
48052;SDS011;33824;51.600;5.718;2023-07-02T03:11:46;18.55;;;6.07;;
48052;SDS011;33824;51.600;5.718;2023-07-02T03:14:13;17.10;;;6.55;;
48052;SDS011;33824;51.600;5.718;2023-07-02T03:16:40;17.98;;;7.15;;
48052;SDS011;33824;51.600;5.718;2023-07-02T03:19:07;20.67;;;6.85;;
48052;SDS011;33824;51.600;5.718;2023-07-02T03:21:33;17.02;;;6.70;;
48052;SDS011;33824;51.600;5.718;2023-07-02T03:23:59;18.80;;;7.28;;
48052;SDS011;33824;51.600;5.718;2023-07-02T03:26:24;17.70;;;6.72;;
48052;SDS011;33824;51.600;5.718;2023-07-02T03:28:50;18.38;;;7.50;;
48052;SDS011;33824;51.600;5.718;2023-07-02T03:31:15;15.88;;;6.93;;
48052;SDS011;33824;51.600;5.718;2023-07-02T03:33:41;19.83;;;7.15;;
48052;SDS011;33824;51.600;5.718;2023-07-02T03:36:06;21.27;;;7.45;;
48052;SDS011;33824;51.600;5.718;2023-07-02T03:38:32;19.85;;;7.10;;
48052;SDS011;33824;51.600;5.718;2023-07-02T03:40:59;22.38;;;6.95;;
48052;SDS011;33824;51.600;5.718;2023-07-02T03:43:25;14.55;;;6.45;;
48052;SDS011;33824;51.600;5.718;2023-07-02T03:45:52;19.15;;;6.30;;
48052;SDS011;33824;51.600;5.718;2023-07-02T03:48:17;22.48;;;7.07;;
48052;SDS011;33824;51.600;5.718;2023-07-02T03:50:43;18.75;;;7.10;;
48052;SDS011;33824;51.600;5.718;2023-07-02T03:53:09;15.32;;;6.30;;
48052;SDS011;33824;51.600;5.718;2023-07-02T03:55:35;22.70;;;6.72;;
48052;SDS011;33824;51.600;5.718;2023-07-02T03:58:00;17.83;;;6.55;;
48052;SDS011;33824;51.600;5.718;2023-07-02T04:00:26;14.85;;;6.30;;
48052;SDS011;33824;51.600;5.718;2023-07-02T04:02:52;18.25;;;6.78;;
48052;SDS011;33824;51.600;5.718;2023-07-02T04:05:17;17.08;;;6.53;;
48052;SDS011;33824;51.600;5.718;2023-07-02T04:07:43;21.05;;;6.15;;
48052;SDS011;33824;51.600;5.718;2023-07-02T04:10:08;20.00;;;6.25;;
48052;SDS011;33824;51.600;5.718;2023-07-02T04:12:34;16.70;;;6.85;;
48052;SDS011;33824;51.600;5.718;2023-07-02T04:15:00;20.05;;;6.75;;
48052;SDS011;33824;51.600;5.718;2023-07-02T04:17:25;15.93;;;6.55;;
48052;SDS011;33824;51.600;5.718;2023-07-02T04:19:53;15.50;;;6.00;;
48052;SDS011;33824;51.600;5.718;2023-07-02T04:22:19;19.60;;;6.65;;
48052;SDS011;33824;51.600;5.718;2023-07-02T04:24:45;14.63;;;6.40;;
48052;SDS011;33824;51.600;5.718;2023-07-02T04:27:14;17.80;;;6.38;;
48052;SDS011;33824;51.600;5.718;2023-07-02T04:29:43;15.75;;;5.93;;
48052;SDS011;33824;51.600;5.718;2023-07-02T04:32:09;18.00;;;6.35;;
48052;SDS011;33824;51.600;5.718;2023-07-02T04:34:35;17.88;;;6.65;;
48052;SDS011;33824;51.600;5.718;2023-07-02T04:37:04;21.50;;;6.68;;
48052;SDS011;33824;51.600;5.718;2023-07-02T04:39:30;19.08;;;7.43;;
48052;SDS011;33824;51.600;5.718;2023-07-02T04:42:00;14.77;;;6.30;;
48052;SDS011;33824;51.600;5.718;2023-07-02T04:44:26;22.27;;;6.68;;
48052;SDS011;33824;51.600;5.718;2023-07-02T04:47:01;18.80;;;6.28;;
48052;SDS011;33824;51.600;5.718;2023-07-02T04:49:27;25.25;;;7.05;;
48052;SDS011;33824;51.600;5.718;2023-07-02T04:51:53;29.15;;;7.53;;
48052;SDS011;33824;51.600;5.718;2023-07-02T04:54:19;15.30;;;6.30;;
48052;SDS011;33824;51.600;5.718;2023-07-02T04:56:46;23.33;;;6.93;;
48052;SDS011;33824;51.600;5.718;2023-07-02T04:59:13;23.65;;;6.88;;
48052;SDS011;33824;51.600;5.718;2023-07-02T05:01:39;20.45;;;6.30;;
48052;SDS011;33824;51.600;5.718;2023-07-02T05:04:05;21.42;;;7.10;;
48052;SDS011;33824;51.600;5.718;2023-07-02T05:06:31;21.73;;;5.90;;
48052;SDS011;33824;51.600;5.718;2023-07-02T05:08:56;13.38;;;5.93;;
48052;SDS011;33824;51.600;5.718;2023-07-02T05:11:22;17.15;;;5.65;;
48052;SDS011;33824;51.600;5.718;2023-07-02T05:13:48;15.93;;;6.25;;
48052;SDS011;33824;51.600;5.718;2023-07-02T05:16:13;20.92;;;6.80;;
48052;SDS011;33824;51.600;5.718;2023-07-02T05:18:39;15.68;;;5.88;;
48052;SDS011;33824;51.600;5.718;2023-07-02T05:21:05;21.92;;;5.93;;
48052;SDS011;33824;51.600;5.718;2023-07-02T05:23:31;13.13;;;5.10;;
48052;SDS011;33824;51.600;5.718;2023-07-02T05:25:56;15.55;;;5.25;;
48052;SDS011;33824;51.600;5.718;2023-07-02T05:28:22;15.82;;;6.30;;
48052;SDS011;33824;51.600;5.718;2023-07-02T05:30:47;17.50;;;6.57;;
48052;SDS011;33824;51.600;5.718;2023-07-02T05:33:13;18.77;;;5.95;;
48052;SDS011;33824;51.600;5.718;2023-07-02T05:35:38;13.70;;;4.95;;
48052;SDS011;33824;51.600;5.718;2023-07-02T05:38:04;15.35;;;5.70;;
48052;SDS011;33824;51.600;5.718;2023-07-02T05:40:30;16.63;;;5.57;;
48052;SDS011;33824;51.600;5.718;2023-07-02T05:42:56;21.73;;;5.78;;
48052;SDS011;33824;51.600;5.718;2023-07-02T05:45:21;15.63;;;5.25;;
48052;SDS011;33824;51.600;5.718;2023-07-02T05:47:48;17.77;;;6.00;;
48052;SDS011;33824;51.600;5.718;2023-07-02T05:50:14;14.52;;;5.30;;
48052;SDS011;33824;51.600;5.718;2023-07-02T05:52:40;11.48;;;5.43;;
48052;SDS011;33824;51.600;5.718;2023-07-02T05:55:07;12.20;;;5.00;;
48052;SDS011;33824;51.600;5.718;2023-07-02T05:57:36;13.57;;;4.75;;
48052;SDS011;33824;51.600;5.718;2023-07-02T06:00:03;15.30;;;5.20;;
48052;SDS011;33824;51.600;5.718;2023-07-02T06:02:31;14.30;;;5.20;;
48052;SDS011;33824;51.600;5.718;2023-07-02T06:04:57;18.08;;;6.05;;
48052;SDS011;33824;51.600;5.718;2023-07-02T06:07:24;20.50;;;4.57;;
48052;SDS011;33824;51.600;5.718;2023-07-02T06:09:50;13.90;;;4.85;;
48052;SDS011;33824;51.600;5.718;2023-07-02T06:12:16;12.02;;;4.57;;
48052;SDS011;33824;51.600;5.718;2023-07-02T06:14:41;19.65;;;4.55;;
48052;SDS011;33824;51.600;5.718;2023-07-02T06:17:07;26.40;;;5.50;;
48052;SDS011;33824;51.600;5.718;2023-07-02T06:19:33;18.50;;;5.35;;
48052;SDS011;33824;51.600;5.718;2023-07-02T06:21:59;11.95;;;4.57;;
48052;SDS011;33824;51.600;5.718;2023-07-02T06:24:25;13.38;;;4.28;;
48052;SDS011;33824;51.600;5.718;2023-07-02T06:26:50;21.40;;;4.88;;
48052;SDS011;33824;51.600;5.718;2023-07-02T06:29:16;10.25;;;3.75;;
48052;SDS011;33824;51.600;5.718;2023-07-02T06:31:42;9.27;;;3.58;;
48052;SDS011;33824;51.600;5.718;2023-07-02T06:34:07;11.25;;;4.15;;
48052;SDS011;33824;51.600;5.718;2023-07-02T06:36:34;12.70;;;4.13;;
48052;SDS011;33824;51.600;5.718;2023-07-02T06:39:00;12.43;;;4.35;;
48052;SDS011;33824;51.600;5.718;2023-07-02T06:41:26;15.50;;;4.22;;
48052;SDS011;33824;51.600;5.718;2023-07-02T06:43:51;14.57;;;4.75;;
48052;SDS011;33824;51.600;5.718;2023-07-02T06:46:17;16.58;;;4.82;;
48052;SDS011;33824;51.600;5.718;2023-07-02T06:48:42;12.23;;;3.50;;
48052;SDS011;33824;51.600;5.718;2023-07-02T06:51:08;15.45;;;3.88;;
48052;SDS011;33824;51.600;5.718;2023-07-02T06:53:34;15.20;;;4.00;;
48052;SDS011;33824;51.600;5.718;2023-07-02T06:56:01;12.52;;;3.97;;
48052;SDS011;33824;51.600;5.718;2023-07-02T06:58:26;13.73;;;4.13;;
48052;SDS011;33824;51.600;5.718;2023-07-02T07:00:51;11.48;;;4.32;;
48052;SDS011;33824;51.600;5.718;2023-07-02T07:03:17;11.13;;;3.50;;
48052;SDS011;33824;51.600;5.718;2023-07-02T07:05:43;17.70;;;4.18;;
48052;SDS011;33824;51.600;5.718;2023-07-02T07:08:08;16.98;;;4.53;;
48052;SDS011;33824;51.600;5.718;2023-07-02T07:10:34;17.90;;;3.45;;
48052;SDS011;33824;51.600;5.718;2023-07-02T07:13:02;16.17;;;4.78;;
48052;SDS011;33824;51.600;5.718;2023-07-02T07:15:30;12.60;;;3.60;;
48052;SDS011;33824;51.600;5.718;2023-07-02T07:17:58;13.52;;;3.67;;
48052;SDS011;33824;51.600;5.718;2023-07-02T07:20:23;12.40;;;3.83;;
48052;SDS011;33824;51.600;5.718;2023-07-02T07:22:49;12.93;;;3.30;;
48052;SDS011;33824;51.600;5.718;2023-07-02T07:25:14;11.13;;;3.22;;
48052;SDS011;33824;51.600;5.718;2023-07-02T07:27:40;12.07;;;3.22;;
48052;SDS011;33824;51.600;5.718;2023-07-02T07:30:05;10.07;;;4.03;;
48052;SDS011;33824;51.600;5.718;2023-07-02T07:32:32;12.38;;;3.20;;
48052;SDS011;33824;51.600;5.718;2023-07-02T07:34:57;8.82;;;3.40;;
48052;SDS011;33824;51.600;5.718;2023-07-02T07:37:24;12.73;;;3.60;;
48052;SDS011;33824;51.600;5.718;2023-07-02T07:39:50;8.65;;;3.03;;
48052;SDS011;33824;51.600;5.718;2023-07-02T07:42:16;14.45;;;3.38;;
48052;SDS011;33824;51.600;5.718;2023-07-02T07:44:42;10.95;;;3.38;;
48052;SDS011;33824;51.600;5.718;2023-07-02T07:47:09;6.03;;;2.55;;
48052;SDS011;33824;51.600;5.718;2023-07-02T07:49:35;11.88;;;3.90;;
48052;SDS011;33824;51.600;5.718;2023-07-02T07:52:01;7.38;;;3.13;;
48052;SDS011;33824;51.600;5.718;2023-07-02T07:54:26;11.02;;;3.25;;
48052;SDS011;33824;51.600;5.718;2023-07-02T07:56:52;16.52;;;3.70;;
48052;SDS011;33824;51.600;5.718;2023-07-02T07:59:17;10.98;;;3.28;;
48052;SDS011;33824;51.600;5.718;2023-07-02T08:01:43;9.27;;;3.45;;
48052;SDS011;33824;51.600;5.718;2023-07-02T08:04:08;8.77;;;2.65;;
48052;SDS011;33824;51.600;5.718;2023-07-02T08:06:34;10.77;;;3.30;;
48052;SDS011;33824;51.600;5.718;2023-07-02T08:08:59;9.25;;;3.05;;
48052;SDS011;33824;51.600;5.718;2023-07-02T08:11:25;14.35;;;2.92;;
48052;SDS011;33824;51.600;5.718;2023-07-02T08:13:51;9.40;;;2.70;;
48052;SDS011;33824;51.600;5.718;2023-07-02T08:16:16;7.43;;;3.00;;
48052;SDS011;33824;51.600;5.718;2023-07-02T08:18:42;9.25;;;3.00;;
48052;SDS011;33824;51.600;5.718;2023-07-02T08:21:07;11.07;;;3.10;;
48052;SDS011;33824;51.600;5.718;2023-07-02T08:23:33;10.98;;;3.10;;
48052;SDS011;33824;51.600;5.718;2023-07-02T08:25:58;9.93;;;2.88;;
48052;SDS011;33824;51.600;5.718;2023-07-02T08:28:24;10.18;;;3.30;;
48052;SDS011;33824;51.600;5.718;2023-07-02T08:30:49;8.32;;;2.95;;
48052;SDS011;33824;51.600;5.718;2023-07-02T08:33:15;7.50;;;2.50;;
48052;SDS011;33824;51.600;5.718;2023-07-02T08:35:41;10.23;;;2.88;;
48052;SDS011;33824;51.600;5.718;2023-07-02T08:38:09;7.07;;;2.55;;
48052;SDS011;33824;51.600;5.718;2023-07-02T08:40:35;10.23;;;3.03;;
48052;SDS011;33824;51.600;5.718;2023-07-02T08:43:00;6.43;;;3.03;;
48052;SDS011;33824;51.600;5.718;2023-07-02T08:45:26;6.53;;;3.00;;
48052;SDS011;33824;51.600;5.718;2023-07-02T08:47:52;7.32;;;3.00;;
48052;SDS011;33824;51.600;5.718;2023-07-02T08:50:22;8.90;;;2.33;;
48052;SDS011;33824;51.600;5.718;2023-07-02T08:52:48;6.55;;;2.78;;
48052;SDS011;33824;51.600;5.718;2023-07-02T08:55:14;13.13;;;3.00;;
48052;SDS011;33824;51.600;5.718;2023-07-02T08:57:40;14.23;;;2.80;;
48052;SDS011;33824;51.600;5.718;2023-07-02T09:00:14;5.82;;;2.50;;
48052;SDS011;33824;51.600;5.718;2023-07-02T09:02:40;8.13;;;2.97;;
48052;SDS011;33824;51.600;5.718;2023-07-02T09:05:06;8.98;;;2.80;;
48052;SDS011;33824;51.600;5.718;2023-07-02T09:07:32;6.53;;;3.10;;
48052;SDS011;33824;51.600;5.718;2023-07-02T09:10:08;8.10;;;2.70;;
48052;SDS011;33824;51.600;5.718;2023-07-02T09:12:34;13.63;;;3.15;;
48052;SDS011;33824;51.600;5.718;2023-07-02T09:15:07;11.68;;;2.72;;
48052;SDS011;33824;51.600;5.718;2023-07-02T09:17:34;8.27;;;3.10;;
48052;SDS011;33824;51.600;5.718;2023-07-02T09:20:04;10.50;;;2.80;;
48052;SDS011;33824;51.600;5.718;2023-07-02T09:22:33;8.02;;;2.65;;
48052;SDS011;33824;51.600;5.718;2023-07-02T09:25:00;8.35;;;2.63;;
48052;SDS011;33824;51.600;5.718;2023-07-02T09:27:35;8.35;;;2.35;;
48052;SDS011;33824;51.600;5.718;2023-07-02T09:30:13;8.05;;;2.88;;
48052;SDS011;33824;51.600;5.718;2023-07-02T09:32:43;8.73;;;2.80;;
48052;SDS011;33824;51.600;5.718;2023-07-02T09:35:10;8.30;;;2.58;;
48052;SDS011;33824;51.600;5.718;2023-07-02T09:37:35;9.68;;;2.90;;
48052;SDS011;33824;51.600;5.718;2023-07-02T09:40:02;8.85;;;3.10;;
48052;SDS011;33824;51.600;5.718;2023-07-02T09:42:31;5.47;;;2.65;;
48052;SDS011;33824;51.600;5.718;2023-07-02T09:44:59;7.40;;;3.22;;
48052;SDS011;33824;51.600;5.718;2023-07-02T09:47:26;11.32;;;3.20;;
48052;SDS011;33824;51.600;5.718;2023-07-02T09:49:54;10.35;;;3.70;;
48052;SDS011;33824;51.600;5.718;2023-07-02T09:52:24;9.85;;;3.03;;
48052;SDS011;33824;51.600;5.718;2023-07-02T09:54:51;9.20;;;2.60;;
48052;SDS011;33824;51.600;5.718;2023-07-02T09:57:17;10.75;;;3.40;;
48052;SDS011;33824;51.600;5.718;2023-07-02T09:59:42;10.23;;;2.92;;
48052;SDS011;33824;51.600;5.718;2023-07-02T10:02:08;11.27;;;3.17;;
48052;SDS011;33824;51.600;5.718;2023-07-02T10:04:42;9.57;;;2.78;;
48052;SDS011;33824;51.600;5.718;2023-07-02T10:07:12;7.28;;;2.92;;
48052;SDS011;33824;51.600;5.718;2023-07-02T10:09:39;7.97;;;2.38;;
48052;SDS011;33824;51.600;5.718;2023-07-02T10:12:21;10.25;;;3.28;;
48052;SDS011;33824;51.600;5.718;2023-07-02T10:14:48;22.95;;;3.25;;
48052;SDS011;33824;51.600;5.718;2023-07-02T10:17:34;11.45;;;3.33;;
48052;SDS011;33824;51.600;5.718;2023-07-02T10:20:02;11.15;;;3.50;;
48052;SDS011;33824;51.600;5.718;2023-07-02T10:22:45;10.77;;;2.83;;
48052;SDS011;33824;51.600;5.718;2023-07-02T10:25:23;9.18;;;3.25;;
48052;SDS011;33824;51.600;5.718;2023-07-02T10:27:50;7.63;;;2.58;;
48052;SDS011;33824;51.600;5.718;2023-07-02T10:30:16;11.25;;;3.30;;
48052;SDS011;33824;51.600;5.718;2023-07-02T10:32:41;11.70;;;3.60;;
48052;SDS011;33824;51.600;5.718;2023-07-02T10:35:16;8.07;;;3.17;;
48052;SDS011;33824;51.600;5.718;2023-07-02T10:37:43;17.38;;;3.08;;
48052;SDS011;33824;51.600;5.718;2023-07-02T10:40:09;8.20;;;3.60;;
48052;SDS011;33824;51.600;5.718;2023-07-02T10:42:46;12.98;;;3.10;;
48052;SDS011;33824;51.600;5.718;2023-07-02T10:45:12;9.82;;;3.10;;
48052;SDS011;33824;51.600;5.718;2023-07-02T10:47:40;8.25;;;3.03;;
48052;SDS011;33824;51.600;5.718;2023-07-02T10:50:16;9.02;;;2.70;;
48052;SDS011;33824;51.600;5.718;2023-07-02T10:52:46;11.10;;;3.25;;
48052;SDS011;33824;51.600;5.718;2023-07-02T10:55:19;9.93;;;3.15;;
48052;SDS011;33824;51.600;5.718;2023-07-02T10:57:45;17.77;;;3.83;;
48052;SDS011;33824;51.600;5.718;2023-07-02T11:00:12;11.55;;;3.35;;
48052;SDS011;33824;51.600;5.718;2023-07-02T11:02:38;15.38;;;2.90;;
48052;SDS011;33824;51.600;5.718;2023-07-02T11:05:07;8.43;;;2.90;;
48052;SDS011;33824;51.600;5.718;2023-07-02T11:07:40;10.82;;;3.60;;
48052;SDS011;33824;51.600;5.718;2023-07-02T11:10:07;12.48;;;3.65;;
48052;SDS011;33824;51.600;5.718;2023-07-02T11:12:34;10.20;;;3.67;;
48052;SDS011;33824;51.600;5.718;2023-07-02T11:15:10;9.27;;;3.35;;
48052;SDS011;33824;51.600;5.718;2023-07-02T11:17:37;10.50;;;2.92;;
48052;SDS011;33824;51.600;5.718;2023-07-02T11:20:05;11.57;;;3.35;;
48052;SDS011;33824;51.600;5.718;2023-07-02T11:22:31;9.23;;;3.30;;
48052;SDS011;33824;51.600;5.718;2023-07-02T11:25:08;11.90;;;4.22;;
48052;SDS011;33824;51.600;5.718;2023-07-02T11:27:35;15.38;;;3.47;;
48052;SDS011;33824;51.600;5.718;2023-07-02T11:30:01;8.35;;;2.97;;
48052;SDS011;33824;51.600;5.718;2023-07-02T11:32:26;10.70;;;3.35;;
48052;SDS011;33824;51.600;5.718;2023-07-02T11:34:55;10.07;;;3.72;;
48052;SDS011;33824;51.600;5.718;2023-07-02T11:37:21;12.23;;;3.45;;
48052;SDS011;33824;51.600;5.718;2023-07-02T11:39:47;10.93;;;3.67;;
48052;SDS011;33824;51.600;5.718;2023-07-02T11:42:13;7.35;;;3.22;;
48052;SDS011;33824;51.600;5.718;2023-07-02T11:44:40;10.00;;;3.33;;
48052;SDS011;33824;51.600;5.718;2023-07-02T11:47:05;10.68;;;3.53;;
48052;SDS011;33824;51.600;5.718;2023-07-02T11:49:31;9.43;;;3.85;;
48052;SDS011;33824;51.600;5.718;2023-07-02T11:51:57;9.48;;;3.72;;
48052;SDS011;33824;51.600;5.718;2023-07-02T11:54:22;13.48;;;3.75;;
48052;SDS011;33824;51.600;5.718;2023-07-02T11:56:48;12.35;;;4.57;;
48052;SDS011;33824;51.600;5.718;2023-07-02T11:59:13;12.02;;;3.25;;
48052;SDS011;33824;51.600;5.718;2023-07-02T12:01:39;10.10;;;3.20;;
48052;SDS011;33824;51.600;5.718;2023-07-02T12:04:05;12.40;;;3.92;;
48052;SDS011;33824;51.600;5.718;2023-07-02T12:06:32;9.13;;;3.67;;
48052;SDS011;33824;51.600;5.718;2023-07-02T12:08:58;12.20;;;3.63;;
48052;SDS011;33824;51.600;5.718;2023-07-02T12:11:24;9.35;;;3.65;;
48052;SDS011;33824;51.600;5.718;2023-07-02T12:13:50;10.25;;;3.70;;
48052;SDS011;33824;51.600;5.718;2023-07-02T12:16:15;11.60;;;3.45;;
48052;SDS011;33824;51.600;5.718;2023-07-02T12:18:41;10.68;;;3.83;;
48052;SDS011;33824;51.600;5.718;2023-07-02T12:21:06;10.65;;;3.78;;
48052;SDS011;33824;51.600;5.718;2023-07-02T12:23:32;21.08;;;4.45;;
48052;SDS011;33824;51.600;5.718;2023-07-02T12:25:57;9.90;;;2.92;;
48052;SDS011;33824;51.600;5.718;2023-07-02T12:28:23;9.02;;;3.40;;
48052;SDS011;33824;51.600;5.718;2023-07-02T12:30:49;13.50;;;3.70;;
48052;SDS011;33824;51.600;5.718;2023-07-02T12:33:15;10.80;;;3.55;;
48052;SDS011;33824;51.600;5.718;2023-07-02T12:35:40;11.70;;;3.65;;
48052;SDS011;33824;51.600;5.718;2023-07-02T12:38:06;12.02;;;3.80;;
48052;SDS011;33824;51.600;5.718;2023-07-02T12:40:33;9.68;;;3.53;;
48052;SDS011;33824;51.600;5.718;2023-07-02T12:42:59;11.75;;;3.03;;
48052;SDS011;33824;51.600;5.718;2023-07-02T12:45:24;8.93;;;3.35;;
48052;SDS011;33824;51.600;5.718;2023-07-02T12:47:50;11.43;;;3.42;;
48052;SDS011;33824;51.600;5.718;2023-07-02T12:50:15;7.65;;;3.17;;
48052;SDS011;33824;51.600;5.718;2023-07-02T12:52:41;8.98;;;3.33;;
48052;SDS011;33824;51.600;5.718;2023-07-02T12:55:07;5.82;;;2.60;;
48052;SDS011;33824;51.600;5.718;2023-07-02T12:57:34;7.63;;;3.22;;
48052;SDS011;33824;51.600;5.718;2023-07-02T13:00:02;10.18;;;2.72;;
48052;SDS011;33824;51.600;5.718;2023-07-02T13:02:31;9.05;;;3.17;;
48052;SDS011;33824;51.600;5.718;2023-07-02T13:04:57;3.75;;;1.92;;
48052;SDS011;33824;51.600;5.718;2023-07-02T13:07:22;7.95;;;2.22;;
48052;SDS011;33824;51.600;5.718;2023-07-02T13:09:49;11.43;;;2.70;;
48052;SDS011;33824;51.600;5.718;2023-07-02T13:12:14;6.63;;;2.47;;
48052;SDS011;33824;51.600;5.718;2023-07-02T13:14:40;13.75;;;2.83;;
48052;SDS011;33824;51.600;5.718;2023-07-02T13:17:05;6.90;;;1.88;;
48052;SDS011;33824;51.600;5.718;2023-07-02T13:19:31;5.90;;;2.38;;
48052;SDS011;33824;51.600;5.718;2023-07-02T13:21:57;6.32;;;2.20;;
48052;SDS011;33824;51.600;5.718;2023-07-02T13:24:23;6.13;;;2.28;;
48052;SDS011;33824;51.600;5.718;2023-07-02T13:26:49;8.23;;;2.05;;
48052;SDS011;33824;51.600;5.718;2023-07-02T13:29:14;6.85;;;2.30;;
48052;SDS011;33824;51.600;5.718;2023-07-02T13:31:40;7.68;;;1.90;;
48052;SDS011;33824;51.600;5.718;2023-07-02T13:34:05;4.20;;;1.80;;
48052;SDS011;33824;51.600;5.718;2023-07-02T13:36:31;7.28;;;2.22;;
48052;SDS011;33824;51.600;5.718;2023-07-02T13:38:57;6.65;;;2.45;;
48052;SDS011;33824;51.600;5.718;2023-07-02T13:41:23;8.88;;;2.30;;
48052;SDS011;33824;51.600;5.718;2023-07-02T13:43:48;4.38;;;1.88;;
48052;SDS011;33824;51.600;5.718;2023-07-02T13:46:14;7.55;;;1.95;;
48052;SDS011;33824;51.600;5.718;2023-07-02T13:48:39;3.22;;;1.33;;
48052;SDS011;33824;51.600;5.718;2023-07-02T13:51:05;5.40;;;1.95;;
48052;SDS011;33824;51.600;5.718;2023-07-02T13:53:30;8.18;;;1.98;;
48052;SDS011;33824;51.600;5.718;2023-07-02T13:55:57;5.75;;;2.60;;
48052;SDS011;33824;51.600;5.718;2023-07-02T13:58:23;13.55;;;3.15;;
48052;SDS011;33824;51.600;5.718;2023-07-02T14:00:48;8.48;;;1.88;;
48052;SDS011;33824;51.600;5.718;2023-07-02T14:03:14;6.45;;;1.95;;
48052;SDS011;33824;51.600;5.718;2023-07-02T14:05:40;10.35;;;2.08;;
48052;SDS011;33824;51.600;5.718;2023-07-02T14:08:06;3.42;;;1.45;;
48052;SDS011;33824;51.600;5.718;2023-07-02T14:10:31;5.65;;;1.98;;
48052;SDS011;33824;51.600;5.718;2023-07-02T14:12:57;5.88;;;2.08;;
48052;SDS011;33824;51.600;5.718;2023-07-02T14:15:24;4.70;;;1.90;;
48052;SDS011;33824;51.600;5.718;2023-07-02T14:17:50;4.40;;;1.85;;
48052;SDS011;33824;51.600;5.718;2023-07-02T14:20:16;5.97;;;1.55;;
48052;SDS011;33824;51.600;5.718;2023-07-02T14:22:41;6.68;;;2.47;;
48052;SDS011;33824;51.600;5.718;2023-07-02T14:25:07;6.78;;;1.95;;
48052;SDS011;33824;51.600;5.718;2023-07-02T14:27:33;3.88;;;1.65;;
48052;SDS011;33824;51.600;5.718;2023-07-02T14:29:58;5.53;;;2.20;;
48052;SDS011;33824;51.600;5.718;2023-07-02T14:32:26;4.53;;;1.85;;
48052;SDS011;33824;51.600;5.718;2023-07-02T14:34:51;6.20;;;2.33;;
48052;SDS011;33824;51.600;5.718;2023-07-02T14:37:17;11.35;;;2.58;;